Ironwood, MI

9:57 AM CDT on May 25, 2018 (GMT -0500)
Gogebic-Iron County

Weather History for KIWD - February, 2013

Change the Weather History Date:

Monday, February 11, 2013

  Actual Average Record
Temperature  
Mean Temperature 24 °F -  
Max Temperature 30 °F 25 °F 46 °F (1999)
Min Temperature 19 °F 8 °F -23 °F (2001)
Degree Days  
Heating Degree Days 40    
Moisture  
Dew Point 21 °F    
Average Humidity 84    
Maximum Humidity 93    
Minimum Humidity 74    
Precipitation  
Precipitation 0.00 in - - ()
Sea Level Pressure  
Sea Level Pressure 29.53 in    
Wind  
Wind Speed 9 mph (NW)    
Max Wind Speed 20 mph    
Max Gust Speed 29 mph    
Visibility 4 miles    
Events      
Averages and records for this station are not official NWS values.
T = Trace of Precipitation, MM = Missing Value Source: NWS Daily Summary

Daily Weather History Graph

Daily Weather History Graph

Search for Another Location

Airport or City:

Astronomy

Feb. 11, 2013 Rise Set
Actual Time 7:09 AM CST 5:20 PM CST
Civil Twilight 6:38 AM CST 5:51 PM CST
Nautical Twilight 6:03 AM CST 6:27 PM CST
Astronomical Twilight 5:28 AM CST 7:02 PM CST
Moon 7:25 AM CST (2/11) 7:27 PM CST (2/11)
Length of Visible Light 11h 12m
Length of Day
10h 10m
Waxing Crescent, 3% of the Moon is Illuminated
Feb 11
Waxing Crescent
Feb 17
First Quarter
Feb 25
Full
Mar 4
Last Quarter
Mar 11
New

Hourly Weather History & Observations

Time (CST) Temp. Windchill Dew Point Humidity Pressure Visibility Wind Dir Wind Speed Gust Speed Precip Events Conditions
12:15 AM 30.2 °F 26.7 °F 28.4 °F 93% 29.25 in 9.0 mi NE 3.5 mph - N/A   Overcast
12:35 AM 30.2 °F 25.4 °F 28.4 °F 93% 29.24 in 3.0 mi NNE 4.6 mph - N/A   Overcast
12:55 AM 30.2 °F 26.7 °F 26.6 °F 86% 29.24 in 3.0 mi NNE 3.5 mph - N/A   Overcast
1:15 AM 30.2 °F 25.4 °F 28.4 °F 93% 29.23 in 2.5 mi North 4.6 mph - N/A   Overcast
1:35 AM 30.2 °F 26.7 °F 28.4 °F 93% 29.23 in 1.5 mi North 3.5 mph - N/A   Overcast
1:55 AM 30.2 °F 25.4 °F 26.6 °F 86% 29.24 in 2.5 mi North 4.6 mph - N/A   Overcast
2:15 AM 30.2 °F 25.4 °F 26.6 °F 86% 29.24 in 3.0 mi North 4.6 mph - N/A   Overcast
2:35 AM 30.2 °F 24.3 °F 28.4 °F 93% 29.24 in 2.5 mi NNW 5.8 mph - N/A   Overcast
3:15 AM 30.2 °F 24.3 °F 26.6 °F 86% 29.23 in 2.0 mi NNW 5.8 mph - N/A   Overcast
3:35 AM 30.2 °F 25.4 °F 26.6 °F 86% 29.23 in 1.5 mi North 4.6 mph - N/A   Overcast
3:55 AM 30.2 °F 24.3 °F 26.6 °F 86% 29.24 in 1.8 mi North 5.8 mph - N/A   Overcast
4:15 AM 30.2 °F 23.4 °F 26.6 °F 86% 29.24 in 3.0 mi North 6.9 mph - N/A   Overcast
4:35 AM 30.2 °F 25.4 °F 26.6 °F 86% 29.25 in 10.0 mi NNW 4.6 mph - N/A   Overcast
4:55 AM 30.2 °F 25.4 °F 28.4 °F 93% 29.25 in 5.0 mi NW 4.6 mph - N/A   Overcast
5:15 AM 30.2 °F 23.4 °F 28.4 °F 93% 29.26 in 2.0 mi NW 6.9 mph - N/A   Overcast
5:35 AM 30.2 °F 23.4 °F 28.4 °F 93% 29.27 in 2.0 mi NW 6.9 mph - N/A   Overcast
5:55 AM 30.2 °F 22.6 °F 26.6 °F 86% 29.27 in 2.0 mi WNW 8.1 mph - N/A   Overcast
6:15 AM 30.2 °F 19.3 °F 28.4 °F 93% 29.29 in 2.5 mi NNW 15.0 mph 18.4 mph N/A   Overcast
6:35 AM 30.2 °F 20.2 °F 28.4 °F 93% 29.30 in 1.8 mi NNW 12.7 mph 20.7 mph N/A   Overcast
6:55 AM 30.2 °F 19.8 °F 28.4 °F 93% 29.32 in 1.5 mi NNW 13.8 mph 17.3 mph N/A   Overcast
7:15 AM 30.2 °F 18.5 °F 26.6 °F 86% 29.34 in 0.2 mi NNW 17.3 mph 23.0 mph N/A   Overcast
7:35 AM 28.4 °F 15.4 °F 24.8 °F 86% 29.37 in 0.2 mi North 19.6 mph 28.8 mph N/A   Overcast
7:55 AM 28.4 °F 16.6 °F 24.8 °F 86% 29.39 in 0.8 mi NNW 16.1 mph 28.8 mph N/A   Overcast
8:15 AM 28.4 °F 17.5 °F 24.8 °F 86% 29.41 in 0.8 mi NNW 13.8 mph 18.4 mph N/A   Overcast
8:35 AM 28.4 °F 16.2 °F 24.8 °F 86% 29.42 in 2.5 mi NW 17.3 mph 20.7 mph N/A   Overcast
8:55 AM 28.4 °F 18.0 °F 24.8 °F 86% 29.44 in 2.5 mi NW 12.7 mph 19.6 mph N/A   Overcast
9:15 AM 26.6 °F 16.8 °F 23.0 °F 86% 29.45 in 3.0 mi NW 10.4 mph 23.0 mph N/A   Overcast
9:35 AM 26.6 °F 13.8 °F 21.2 °F 80% 29.46 in 1.8 mi NW 17.3 mph - N/A   Overcast
9:55 AM 26.6 °F 16.2 °F 21.2 °F 80% 29.47 in 1.8 mi NNW 11.5 mph - N/A   Overcast
10:15 AM 26.6 °F 14.7 °F 21.2 °F 80% 29.48 in 2.0 mi NW 15.0 mph - N/A   Overcast
10:35 AM 26.6 °F 15.2 °F 21.2 °F 80% 29.50 in 4.0 mi NNW 13.8 mph - N/A   Overcast
10:55 AM 26.6 °F 16.2 °F 21.2 °F 80% 29.50 in 3.0 mi NW 11.5 mph 16.1 mph N/A   Overcast
11:15 AM 26.6 °F 16.8 °F 21.2 °F 80% 29.52 in 3.0 mi WNW 10.4 mph - N/A   Overcast
11:35 AM 24.8 °F 13.4 °F 21.2 °F 86% 29.53 in 2.5 mi NW 12.7 mph - N/A   Overcast
11:55 AM 24.8 °F 14.6 °F 19.4 °F 80% 29.54 in 2.5 mi NW 10.4 mph 17.3 mph N/A   Overcast
12:15 PM 24.8 °F 14.0 °F 19.4 °F 80% 29.55 in 5.0 mi NW 11.5 mph - N/A   Overcast
12:35 PM 24.8 °F 13.4 °F 19.4 °F 80% 29.56 in 5.0 mi NW 12.7 mph 17.3 mph N/A   Overcast
12:55 PM 24.8 °F 13.4 °F 19.4 °F 80% 29.57 in 4.0 mi NW 12.7 mph 21.9 mph N/A   Overcast
1:15 PM 24.8 °F 14.0 °F 17.6 °F 74% 29.57 in 1.5 mi NW 11.5 mph - N/A   Overcast
1:35 PM 24.8 °F 13.4 °F 19.4 °F 80% 29.58 in 2.5 mi NW 12.7 mph 19.6 mph N/A   Overcast
1:55 PM 24.8 °F 12.4 °F 17.6 °F 74% 29.59 in 5.0 mi NW 15.0 mph 18.4 mph N/A   Overcast
2:15 PM 23.0 °F 10.1 °F 17.6 °F 80% 29.60 in 6.0 mi WNW 15.0 mph 18.4 mph N/A   Overcast
2:35 PM 23.0 °F 11.7 °F 17.6 °F 80% 29.62 in 5.0 mi WNW 11.5 mph - N/A   Overcast
2:55 PM 23.0 °F 10.1 °F 17.6 °F 80% 29.63 in 3.0 mi WNW 15.0 mph 21.9 mph N/A   Overcast
3:15 PM 23.0 °F 13.1 °F 15.8 °F 74% 29.64 in 3.0 mi WNW 9.2 mph - N/A   Overcast
3:35 PM 23.0 °F 11.7 °F 17.6 °F 80% 29.65 in 5.0 mi WNW 11.5 mph 18.4 mph N/A   Overcast
3:55 PM 23.0 °F 11.1 °F 17.6 °F 80% 29.67 in 7.0 mi WNW 12.7 mph 18.4 mph N/A   Overcast
4:55 PM 23.0 °F 12.4 °F 17.6 °F 80% 29.70 in 1.5 mi WNW 10.4 mph - N/A   Overcast
5:15 PM 23.0 °F 9.6 °F 17.6 °F 80% 29.71 in 2.5 mi WNW 16.1 mph 21.9 mph N/A   Overcast
5:35 PM 23.0 °F 9.6 °F 17.6 °F 80% 29.72 in 3.0 mi WNW 16.1 mph 19.6 mph N/A   Overcast
5:55 PM 23.0 °F 10.6 °F 17.6 °F 80% 29.74 in 7.0 mi WNW 13.8 mph 19.6 mph N/A   Overcast
6:15 PM 21.2 °F 7.3 °F 17.6 °F 86% 29.75 in 9.0 mi NW 16.1 mph 19.6 mph N/A   Overcast
6:35 PM 21.2 °F 9.5 °F 15.8 °F 80% 29.76 in 7.0 mi WNW 11.5 mph 18.4 mph N/A   Overcast
6:55 PM 21.2 °F 9.5 °F 15.8 °F 80% 29.77 in 10.0 mi WNW 11.5 mph 16.1 mph N/A   Overcast
7:15 PM 21.2 °F 10.9 °F 15.8 °F 80% 29.78 in 6.0 mi WNW 9.2 mph - N/A   Overcast
7:35 PM 21.2 °F 10.9 °F 15.8 °F 80% 29.79 in 4.0 mi West 9.2 mph - N/A   Overcast
7:55 PM 21.2 °F 9.5 °F 15.8 °F 80% 29.79 in 5.0 mi WNW 11.5 mph - N/A   Overcast
8:15 PM 21.2 °F 10.1 °F 15.8 °F 80% 29.80 in 5.0 mi WNW 10.4 mph - N/A   Overcast
8:35 PM 21.2 °F 9.5 °F 15.8 °F 80% 29.80 in 4.0 mi WNW 11.5 mph - N/A   Overcast
8:55 PM 21.2 °F 10.1 °F 17.6 °F 86% 29.81 in 4.0 mi WNW 10.4 mph - N/A   Overcast
9:15 PM 21.2 °F 10.9 °F 15.8 °F 80% 29.82 in 4.0 mi WNW 9.2 mph - N/A   Overcast
9:35 PM 21.2 °F 9.5 °F 15.8 °F 80% 29.83 in 6.0 mi West 11.5 mph - N/A   Overcast
9:55 PM 21.2 °F 9.5 °F 15.8 °F 80% 29.83 in 5.0 mi WNW 11.5 mph - N/A   Overcast
10:15 PM 21.2 °F 10.1 °F 15.8 °F 80% 29.83 in 5.0 mi WNW 10.4 mph - N/A   Overcast
10:35 PM 21.2 °F 11.7 °F 15.8 °F 80% 29.84 in 5.0 mi WNW 8.1 mph - N/A   Overcast
10:55 PM 21.2 °F 11.7 °F 15.8 °F 80% 29.85 in 5.0 mi West 8.1 mph - N/A   Overcast
11:15 PM 21.2 °F 10.9 °F 15.8 °F 80% 29.85 in 5.0 mi West 9.2 mph - N/A   Overcast
11:35 PM 19.4 °F 9.5 °F 15.8 °F 86% 29.86 in 4.0 mi West 8.1 mph - N/A   Overcast
11:55 PM 19.4 °F 7.2 °F 15.8 °F 86% 29.86 in 5.0 mi West 11.5 mph - N/A   Overcast